sensor_id;sensor_type;location;lat;lon;timestamp;pressure;altitude;pressure_sealevel;temperature;humidity
29417;BME280;28421;51.030;4.006;2023-11-19T00:01:01;100969.66;;;13.41;100.00
29417;BME280;28421;51.030;4.006;2023-11-19T00:03:26;100948.88;;;13.27;100.00
29417;BME280;28421;51.030;4.006;2023-11-19T00:05:51;100992.81;;;13.50;100.00
29417;BME280;28421;51.030;4.006;2023-11-19T00:08:17;100967.22;;;13.46;100.00
29417;BME280;28421;51.030;4.006;2023-11-19T00:10:42;100974.28;;;13.47;100.00
29417;BME280;28421;51.030;4.006;2023-11-19T00:13:08;100948.59;;;13.36;100.00
29417;BME280;28421;51.030;4.006;2023-11-19T00:15:35;100963.94;;;13.51;100.00
29417;BME280;28421;51.030;4.006;2023-11-19T00:18:01;100942.19;;;13.37;100.00
29417;BME280;28421;51.030;4.006;2023-11-19T00:20:30;100950.75;;;13.41;100.00
29417;BME280;28421;51.030;4.006;2023-11-19T00:22:56;100932.66;;;13.41;100.00
29417;BME280;28421;51.030;4.006;2023-11-19T00:25:21;100959.66;;;13.56;100.00
29417;BME280;28421;51.030;4.006;2023-11-19T00:27:47;100966.66;;;13.51;100.00
29417;BME280;28421;51.030;4.006;2023-11-19T00:30:13;100951.78;;;13.40;100.00
29417;BME280;28421;51.030;4.006;2023-11-19T00:32:39;100966.19;;;13.47;100.00
29417;BME280;28421;51.030;4.006;2023-11-19T00:35:06;100936.88;;;13.29;100.00
29417;BME280;28421;51.030;4.006;2023-11-19T00:37:31;100991.22;;;13.56;100.00
29417;BME280;28421;51.030;4.006;2023-11-19T00:39:57;100962.47;;;13.48;100.00
29417;BME280;28421;51.030;4.006;2023-11-19T00:42:24;100980.72;;;13.61;100.00
29417;BME280;28421;51.030;4.006;2023-11-19T00:44:50;100963.88;;;13.44;100.00
29417;BME280;28421;51.030;4.006;2023-11-19T00:47:16;100940.03;;;13.33;100.00
29417;BME280;28421;51.030;4.006;2023-11-19T00:49:41;100959.88;;;13.40;100.00
29417;BME280;28421;51.030;4.006;2023-11-19T00:52:08;100969.91;;;13.46;100.00
29417;BME280;28421;51.030;4.006;2023-11-19T00:54:33;100945.25;;;13.19;100.00
29417;BME280;28421;51.030;4.006;2023-11-19T00:56:59;100942.72;;;13.18;100.00
29417;BME280;28421;51.030;4.006;2023-11-19T00:59:24;100982.59;;;13.46;100.00
29417;BME280;28421;51.030;4.006;2023-11-19T01:01:50;100935.84;;;13.15;100.00
29417;BME280;28421;51.030;4.006;2023-11-19T01:04:18;100963.50;;;13.32;100.00
29417;BME280;28421;51.030;4.006;2023-11-19T01:06:44;100922.59;;;13.06;100.00
29417;BME280;28421;51.030;4.006;2023-11-19T01:09:09;100944.50;;;13.11;100.00
29417;BME280;28421;51.030;4.006;2023-11-19T01:11:35;100936.28;;;13.04;100.00
29417;BME280;28421;51.030;4.006;2023-11-19T01:14:01;100927.25;;;12.97;100.00
29417;BME280;28421;51.030;4.006;2023-11-19T01:16:26;100947.38;;;13.09;100.00
29417;BME280;28421;51.030;4.006;2023-11-19T01:18:52;100949.91;;;13.11;100.00
29417;BME280;28421;51.030;4.006;2023-11-19T01:21:18;100951.38;;;13.13;100.00
29417;BME280;28421;51.030;4.006;2023-11-19T01:23:43;100936.59;;;12.94;100.00
29417;BME280;28421;51.030;4.006;2023-11-19T01:26:09;100972.56;;;13.02;100.00
29417;BME280;28421;51.030;4.006;2023-11-19T01:28:36;100937.38;;;12.80;100.00
29417;BME280;28421;51.030;4.006;2023-11-19T01:31:01;100980.69;;;13.02;100.00
29417;BME280;28421;51.030;4.006;2023-11-19T01:33:27;100948.28;;;12.87;100.00
29417;BME280;28421;51.030;4.006;2023-11-19T01:35:53;100977.44;;;13.06;100.00
29417;BME280;28421;51.030;4.006;2023-11-19T01:38:18;100955.34;;;12.88;100.00
29417;BME280;28421;51.030;4.006;2023-11-19T01:40:44;100958.06;;;12.88;100.00
29417;BME280;28421;51.030;4.006;2023-11-19T01:43:09;100951.34;;;12.84;100.00
29417;BME280;28421;51.030;4.006;2023-11-19T01:45:37;100951.06;;;12.79;100.00
29417;BME280;28421;51.030;4.006;2023-11-19T01:48:04;100944.66;;;12.80;100.00
29417;BME280;28421;51.030;4.006;2023-11-19T01:50:30;100963.47;;;12.88;100.00
29417;BME280;28421;51.030;4.006;2023-11-19T01:52:56;100947.34;;;12.80;100.00
29417;BME280;28421;51.030;4.006;2023-11-19T01:55:26;100937.66;;;12.71;100.00
29417;BME280;28421;51.030;4.006;2023-11-19T01:57:58;100958.34;;;12.78;100.00
29417;BME280;28421;51.030;4.006;2023-11-19T02:00:25;100954.22;;;12.67;100.00
29417;BME280;28421;51.030;4.006;2023-11-19T02:02:52;100958.78;;;12.67;100.00
29417;BME280;28421;51.030;4.006;2023-11-19T02:05:18;100948.06;;;12.59;100.00
29417;BME280;28421;51.030;4.006;2023-11-19T02:07:43;100952.63;;;12.58;100.00
29417;BME280;28421;51.030;4.006;2023-11-19T02:10:09;100931.38;;;12.40;100.00
29417;BME280;28421;51.030;4.006;2023-11-19T02:12:42;100937.88;;;12.46;100.00
29417;BME280;28421;51.030;4.006;2023-11-19T02:15:09;100950.34;;;12.47;100.00
29417;BME280;28421;51.030;4.006;2023-11-19T02:17:35;100962.72;;;12.56;100.00
29417;BME280;28421;51.030;4.006;2023-11-19T02:20:03;100940.66;;;12.38;100.00
29417;BME280;28421;51.030;4.006;2023-11-19T02:22:32;100930.50;;;12.25;100.00
29417;BME280;28421;51.030;4.006;2023-11-19T02:25:01;100942.66;;;12.21;100.00
29417;BME280;28421;51.030;4.006;2023-11-19T02:30:22;100923.97;;;12.19;100.00
29417;BME280;28421;51.030;4.006;2023-11-19T02:32:58;100929.81;;;12.23;100.00
29417;BME280;28421;51.030;4.006;2023-11-19T02:35:26;100933.81;;;12.27;100.00
29417;BME280;28421;51.030;4.006;2023-11-19T02:37:52;100909.28;;;12.22;100.00
29417;BME280;28421;51.030;4.006;2023-11-19T02:40:17;100912.81;;;12.23;100.00
29417;BME280;28421;51.030;4.006;2023-11-19T02:42:43;100891.38;;;12.06;100.00
29417;BME280;28421;51.030;4.006;2023-11-19T02:45:09;100901.09;;;12.15;100.00
29417;BME280;28421;51.030;4.006;2023-11-19T02:47:43;100919.16;;;12.30;100.00
29417;BME280;28421;51.030;4.006;2023-11-19T02:50:12;100906.59;;;12.22;100.00
29417;BME280;28421;51.030;4.006;2023-11-19T02:52:44;100910.88;;;12.31;100.00
29417;BME280;28421;51.030;4.006;2023-11-19T02:55:11;100889.56;;;12.22;100.00
29417;BME280;28421;51.030;4.006;2023-11-19T02:57:41;100901.31;;;12.29;100.00
29417;BME280;28421;51.030;4.006;2023-11-19T03:00:17;100897.53;;;12.15;100.00
29417;BME280;28421;51.030;4.006;2023-11-19T03:02:43;100911.56;;;12.33;100.00
29417;BME280;28421;51.030;4.006;2023-11-19T03:05:12;100913.28;;;12.26;100.00
29417;BME280;28421;51.030;4.006;2023-11-19T03:07:41;100904.44;;;12.17;100.00
29417;BME280;28421;51.030;4.006;2023-11-19T03:10:08;100923.53;;;12.31;100.00
29417;BME280;28421;51.030;4.006;2023-11-19T03:12:34;100917.50;;;12.29;100.00
29417;BME280;28421;51.030;4.006;2023-11-19T03:15:00;100911.34;;;12.20;100.00
29417;BME280;28421;51.030;4.006;2023-11-19T03:17:26;100909.69;;;12.11;100.00
29417;BME280;28421;51.030;4.006;2023-11-19T03:19:51;100927.31;;;12.22;100.00
29417;BME280;28421;51.030;4.006;2023-11-19T03:22:17;100909.19;;;12.15;100.00
29417;BME280;28421;51.030;4.006;2023-11-19T03:24:42;100872.19;;;11.86;100.00
29417;BME280;28421;51.030;4.006;2023-11-19T03:27:08;100910.56;;;12.11;100.00
29417;BME280;28421;51.030;4.006;2023-11-19T03:29:33;100942.84;;;12.19;100.00
29417;BME280;28421;51.030;4.006;2023-11-19T03:31:58;100894.56;;;11.87;100.00
29417;BME280;28421;51.030;4.006;2023-11-19T03:34:24;100949.81;;;12.06;100.00
29417;BME280;28421;51.030;4.006;2023-11-19T03:36:49;100938.94;;;11.99;100.00
29417;BME280;28421;51.030;4.006;2023-11-19T03:39:15;100947.63;;;12.09;100.00
29417;BME280;28421;51.030;4.006;2023-11-19T03:41:40;100939.78;;;12.00;100.00
29417;BME280;28421;51.030;4.006;2023-11-19T03:44:06;100963.50;;;12.04;100.00
29417;BME280;28421;51.030;4.006;2023-11-19T03:46:31;100935.66;;;11.81;100.00
29417;BME280;28421;51.030;4.006;2023-11-19T03:48:56;100930.81;;;11.76;100.00
29417;BME280;28421;51.030;4.006;2023-11-19T03:51:22;100958.69;;;11.91;100.00
29417;BME280;28421;51.030;4.006;2023-11-19T03:53:47;100943.91;;;11.79;100.00
29417;BME280;28421;51.030;4.006;2023-11-19T03:56:13;100955.03;;;11.84;100.00
29417;BME280;28421;51.030;4.006;2023-11-19T03:58:39;100944.94;;;11.86;100.00
29417;BME280;28421;51.030;4.006;2023-11-19T04:01:05;100938.88;;;11.76;100.00
29417;BME280;28421;51.030;4.006;2023-11-19T04:03:31;100915.03;;;11.65;100.00
29417;BME280;28421;51.030;4.006;2023-11-19T04:05:58;100931.03;;;11.66;100.00
29417;BME280;28421;51.030;4.006;2023-11-19T04:08:24;100964.63;;;11.87;100.00
29417;BME280;28421;51.030;4.006;2023-11-19T04:10:49;100973.06;;;11.84;100.00
29417;BME280;28421;51.030;4.006;2023-11-19T04:13:15;100981.44;;;11.89;100.00
29417;BME280;28421;51.030;4.006;2023-11-19T04:15:41;100951.22;;;11.70;100.00
29417;BME280;28421;51.030;4.006;2023-11-19T04:18:08;100967.97;;;11.81;100.00
29417;BME280;28421;51.030;4.006;2023-11-19T04:20:34;100971.50;;;11.81;100.00
29417;BME280;28421;51.030;4.006;2023-11-19T04:22:59;100972.09;;;11.68;100.00
29417;BME280;28421;51.030;4.006;2023-11-19T04:25:26;100944.06;;;11.55;100.00
29417;BME280;28421;51.030;4.006;2023-11-19T04:27:51;100967.53;;;11.69;100.00
29417;BME280;28421;51.030;4.006;2023-11-19T04:30:17;100955.84;;;11.54;100.00
29417;BME280;28421;51.030;4.006;2023-11-19T04:32:43;100952.47;;;11.52;100.00
29417;BME280;28421;51.030;4.006;2023-11-19T04:35:09;100984.59;;;11.61;100.00
29417;BME280;28421;51.030;4.006;2023-11-19T04:37:34;100986.81;;;11.58;100.00
29417;BME280;28421;51.030;4.006;2023-11-19T04:40:00;100991.81;;;11.61;100.00
29417;BME280;28421;51.030;4.006;2023-11-19T04:42:26;100984.25;;;11.56;100.00
29417;BME280;28421;51.030;4.006;2023-11-19T04:44:51;100944.84;;;11.32;100.00
29417;BME280;28421;51.030;4.006;2023-11-19T04:47:17;100965.03;;;11.36;100.00
29417;BME280;28421;51.030;4.006;2023-11-19T04:49:43;100987.44;;;11.60;100.00
29417;BME280;28421;51.030;4.006;2023-11-19T04:52:08;100969.84;;;11.49;100.00
29417;BME280;28421;51.030;4.006;2023-11-19T04:54:34;100984.25;;;11.56;100.00
29417;BME280;28421;51.030;4.006;2023-11-19T04:56:59;100971.16;;;11.53;100.00
29417;BME280;28421;51.030;4.006;2023-11-19T04:59:25;100967.50;;;11.46;100.00
29417;BME280;28421;51.030;4.006;2023-11-19T05:01:50;100952.53;;;11.35;100.00
29417;BME280;28421;51.030;4.006;2023-11-19T05:04:17;100929.41;;;11.18;100.00
29417;BME280;28421;51.030;4.006;2023-11-19T05:06:44;100934.97;;;11.16;100.00
29417;BME280;28421;51.030;4.006;2023-11-19T05:09:09;100959.00;;;11.18;100.00
29417;BME280;28421;51.030;4.006;2023-11-19T05:11:37;100968.41;;;11.22;100.00
29417;BME280;28421;51.030;4.006;2023-11-19T05:14:05;100970.47;;;11.20;100.00
29417;BME280;28421;51.030;4.006;2023-11-19T05:16:31;100946.44;;;11.02;100.00
29417;BME280;28421;51.030;4.006;2023-11-19T05:18:57;101003.56;;;11.29;100.00
29417;BME280;28421;51.030;4.006;2023-11-19T05:21:22;101006.06;;;11.30;100.00
29417;BME280;28421;51.030;4.006;2023-11-19T05:23:49;100973.84;;;11.06;100.00
29417;BME280;28421;51.030;4.006;2023-11-19T05:26:21;100995.13;;;11.32;100.00
29417;BME280;28421;51.030;4.006;2023-11-19T05:28:48;100944.59;;;10.94;100.00
29417;BME280;28421;51.030;4.006;2023-11-19T05:31:13;100945.94;;;10.99;100.00
29417;BME280;28421;51.030;4.006;2023-11-19T05:33:39;100951.81;;;11.02;100.00
29417;BME280;28421;51.030;4.006;2023-11-19T05:36:05;100941.44;;;10.99;100.00
29417;BME280;28421;51.030;4.006;2023-11-19T05:38:31;100969.47;;;11.13;100.00
29417;BME280;28421;51.030;4.006;2023-11-19T05:40:56;100978.88;;;11.09;100.00
29417;BME280;28421;51.030;4.006;2023-11-19T05:43:22;100973.69;;;11.07;100.00
29417;BME280;28421;51.030;4.006;2023-11-19T05:45:47;100992.31;;;11.17;100.00
29417;BME280;28421;51.030;4.006;2023-11-19T05:48:13;100979.22;;;11.06;100.00
29417;BME280;28421;51.030;4.006;2023-11-19T05:50:39;100971.66;;;11.01;100.00
29417;BME280;28421;51.030;4.006;2023-11-19T05:53:04;100959.06;;;11.02;100.00
29417;BME280;28421;51.030;4.006;2023-11-19T05:55:38;100964.94;;;11.05;100.00
29417;BME280;28421;51.030;4.006;2023-11-19T05:58:11;100932.72;;;10.81;100.00
29417;BME280;28421;51.030;4.006;2023-11-19T06:00:38;100991.00;;;11.13;100.00
29417;BME280;28421;51.030;4.006;2023-11-19T06:03:05;100988.63;;;11.10;100.00
29417;BME280;28421;51.030;4.006;2023-11-19T06:05:31;100960.75;;;10.94;100.00
29417;BME280;28421;51.030;4.006;2023-11-19T06:07:56;100939.25;;;10.78;100.00
29417;BME280;28421;51.030;4.006;2023-11-19T06:10:22;100981.28;;;10.95;100.00
29417;BME280;28421;51.030;4.006;2023-11-19T06:12:54;100948.53;;;10.76;100.00
29417;BME280;28421;51.030;4.006;2023-11-19T06:15:21;100981.63;;;10.84;100.00
29417;BME280;28421;51.030;4.006;2023-11-19T06:17:46;100981.44;;;10.86;100.00
29417;BME280;28421;51.030;4.006;2023-11-19T06:20:12;100980.09;;;10.82;100.00
29417;BME280;28421;51.030;4.006;2023-11-19T06:22:39;100971.72;;;10.77;100.00
29417;BME280;28421;51.030;4.006;2023-11-19T06:25:07;101005.31;;;10.97;100.00
29417;BME280;28421;51.030;4.006;2023-11-19T06:27:33;101003.31;;;10.99;100.00
29417;BME280;28421;51.030;4.006;2023-11-19T06:29:58;100982.66;;;10.83;100.00
29417;BME280;28421;51.030;4.006;2023-11-19T06:32:24;100997.06;;;10.90;100.00
29417;BME280;28421;51.030;4.006;2023-11-19T06:34:49;100970.22;;;10.74;100.00
29417;BME280;28421;51.030;4.006;2023-11-19T06:37:15;100965.84;;;10.73;100.00
29417;BME280;28421;51.030;4.006;2023-11-19T06:39:40;100954.94;;;10.66;100.00
29417;BME280;28421;51.030;4.006;2023-11-19T06:42:06;100971.91;;;10.75;100.00
29417;BME280;28421;51.030;4.006;2023-11-19T06:44:32;100986.81;;;10.86;100.00
29417;BME280;28421;51.030;4.006;2023-11-19T06:46:58;100969.72;;;10.62;100.00
29417;BME280;28421;51.030;4.006;2023-11-19T06:49:23;100976.09;;;10.69;100.00
29417;BME280;28421;51.030;4.006;2023-11-19T06:51:49;100977.28;;;10.59;100.00
29417;BME280;28421;51.030;4.006;2023-11-19T06:54:15;100989.72;;;10.68;100.00
29417;BME280;28421;51.030;4.006;2023-11-19T06:56:41;101017.94;;;10.80;100.00
29417;BME280;28421;51.030;4.006;2023-11-19T06:59:07;100970.38;;;10.56;100.00
29417;BME280;28421;51.030;4.006;2023-11-19T07:01:36;101002.00;;;10.62;100.00
29417;BME280;28421;51.030;4.006;2023-11-19T07:04:02;101005.34;;;10.73;100.00
29417;BME280;28421;51.030;4.006;2023-11-19T07:06:34;101009.03;;;10.72;100.00
29417;BME280;28421;51.030;4.006;2023-11-19T07:09:01;100989.38;;;10.63;100.00
29417;BME280;28421;51.030;4.006;2023-11-19T07:11:43;100999.63;;;10.76;100.00
29417;BME280;28421;51.030;4.006;2023-11-19T07:14:11;101002.66;;;10.81;100.00
29417;BME280;28421;51.030;4.006;2023-11-19T07:16:37;101015.06;;;10.90;100.00
29417;BME280;28421;51.030;4.006;2023-11-19T07:19:04;100947.53;;;10.52;100.00
29417;BME280;28421;51.030;4.006;2023-11-19T07:21:30;101016.91;;;10.98;100.00
29417;BME280;28421;51.030;4.006;2023-11-19T07:23:56;100995.41;;;10.89;100.00
29417;BME280;28421;51.030;4.006;2023-11-19T07:26:22;101006.47;;;10.94;100.00
29417;BME280;28421;51.030;4.006;2023-11-19T07:28:51;100998.06;;;10.98;100.00
29417;BME280;28421;51.030;4.006;2023-11-19T07:31:17;100992.69;;;10.98;100.00
29417;BME280;28421;51.030;4.006;2023-11-19T07:33:46;100981.44;;;10.94;100.00
29417;BME280;28421;51.030;4.006;2023-11-19T07:36:12;100967.50;;;10.82;100.00
29417;BME280;28421;51.030;4.006;2023-11-19T07:38:38;100973.56;;;10.84;100.00
29417;BME280;28421;51.030;4.006;2023-11-19T07:41:05;101023.78;;;11.16;100.00
29417;BME280;28421;51.030;4.006;2023-11-19T07:43:31;101002.44;;;11.07;100.00
29417;BME280;28421;51.030;4.006;2023-11-19T07:45:57;101025.44;;;11.26;100.00
29417;BME280;28421;51.030;4.006;2023-11-19T07:48:24;100970.50;;;11.04;100.00
29417;BME280;28421;51.030;4.006;2023-11-19T07:50:50;101012.63;;;11.28;100.00
29417;BME280;28421;51.030;4.006;2023-11-19T07:53:16;100964.13;;;10.97;100.00
29417;BME280;28421;51.030;4.006;2023-11-19T07:55:42;101007.25;;;11.28;100.00
29417;BME280;28421;51.030;4.006;2023-11-19T07:58:07;101007.25;;;11.28;100.00
29417;BME280;28421;51.030;4.006;2023-11-19T08:00:32;100978.88;;;11.09;100.00
29417;BME280;28421;51.030;4.006;2023-11-19T08:02:58;101012.31;;;11.23;100.00
29417;BME280;28421;51.030;4.006;2023-11-19T08:05:23;101023.91;;;11.31;100.00
29417;BME280;28421;51.030;4.006;2023-11-19T08:07:50;101002.38;;;11.23;100.00
29417;BME280;28421;51.030;4.006;2023-11-19T08:10:18;101026.41;;;11.41;100.00
29417;BME280;28421;51.030;4.006;2023-11-19T08:12:44;101030.25;;;11.47;100.00
29417;BME280;28421;51.030;4.006;2023-11-19T08:15:10;100989.63;;;11.17;100.00
29417;BME280;28421;51.030;4.006;2023-11-19T08:17:36;101042.56;;;11.41;100.00
29417;BME280;28421;51.030;4.006;2023-11-19T08:20:02;101038.84;;;11.42;100.00
29417;BME280;28421;51.030;4.006;2023-11-19T08:22:28;100988.44;;;11.19;100.00
29417;BME280;28421;51.030;4.006;2023-11-19T08:24:53;101007.09;;;11.29;100.00
29417;BME280;28421;51.030;4.006;2023-11-19T08:27:19;101029.75;;;11.43;100.00
29417;BME280;28421;51.030;4.006;2023-11-19T08:29:54;101006.25;;;11.29;100.00
29417;BME280;28421;51.030;4.006;2023-11-19T08:32:25;101007.22;;;11.36;100.00
29417;BME280;28421;51.030;4.006;2023-11-19T08:34:51;101034.47;;;11.49;100.00
29417;BME280;28421;51.030;4.006;2023-11-19T08:37:17;101032.25;;;11.44;100.00
29417;BME280;28421;51.030;4.006;2023-11-19T08:39:52;101032.09;;;11.54;100.00
29417;BME280;28421;51.030;4.006;2023-11-19T08:42:18;101034.94;;;11.53;100.00
29417;BME280;28421;51.030;4.006;2023-11-19T08:44:43;101035.63;;;11.55;100.00
29417;BME280;28421;51.030;4.006;2023-11-19T08:47:10;101035.06;;;11.67;100.00
29417;BME280;28421;51.030;4.006;2023-11-19T08:49:36;101047.31;;;11.78;100.00
29417;BME280;28421;51.030;4.006;2023-11-19T08:52:02;101032.50;;;11.74;100.00
29417;BME280;28421;51.030;4.006;2023-11-19T08:54:27;101014.50;;;11.75;100.00
29417;BME280;28421;51.030;4.006;2023-11-19T08:56:53;101024.19;;;11.92;100.00
29417;BME280;28421;51.030;4.006;2023-11-19T08:59:18;101010.25;;;11.88;100.00
29417;BME280;28421;51.030;4.006;2023-11-19T09:01:44;101045.00;;;12.06;100.00
29417;BME280;28421;51.030;4.006;2023-11-19T09:04:10;101031.25;;;11.93;100.00
29417;BME280;28421;51.030;4.006;2023-11-19T09:06:36;101041.47;;;12.06;100.00
29417;BME280;28421;51.030;4.006;2023-11-19T09:09:02;101059.44;;;12.13;100.00
29417;BME280;28421;51.030;4.006;2023-11-19T09:11:28;101019.59;;;12.01;100.00
29417;BME280;28421;51.030;4.006;2023-11-19T09:13:54;101033.38;;;12.06;100.00
29417;BME280;28421;51.030;4.006;2023-11-19T09:16:19;101034.31;;;12.21;100.00
29417;BME280;28421;51.030;4.006;2023-11-19T09:18:45;100994.75;;;12.13;100.00
29417;BME280;28421;51.030;4.006;2023-11-19T09:21:13;101026.31;;;12.36;100.00
29417;BME280;28421;51.030;4.006;2023-11-19T09:23:39;101042.41;;;12.44;100.00
29417;BME280;28421;51.030;4.006;2023-11-19T09:26:06;101045.16;;;12.59;100.00
29417;BME280;28421;51.030;4.006;2023-11-19T09:28:33;101004.34;;;12.39;100.00
29417;BME280;28421;51.030;4.006;2023-11-19T09:30:58;101025.69;;;12.49;100.00
29417;BME280;28421;51.030;4.006;2023-11-19T09:33:24;101032.16;;;12.62;100.00
29417;BME280;28421;51.030;4.006;2023-11-19T09:35:50;101014.38;;;12.53;100.00
29417;BME280;28421;51.030;4.006;2023-11-19T09:38:16;101011.19;;;12.50;100.00
29417;BME280;28421;51.030;4.006;2023-11-19T09:40:42;101042.59;;;12.65;100.00
29417;BME280;28421;51.030;4.006;2023-11-19T09:43:07;101039.00;;;12.50;100.00
29417;BME280;28421;51.030;4.006;2023-11-19T09:45:47;101027.72;;;12.24;100.00
29417;BME280;28421;51.030;4.006;2023-11-19T09:48:16;101038.03;;;12.20;100.00
29417;BME280;28421;51.030;4.006;2023-11-19T09:50:42;101028.88;;;11.98;100.00
29417;BME280;28421;51.030;4.006;2023-11-19T09:53:07;101032.44;;;11.99;100.00
29417;BME280;28421;51.030;4.006;2023-11-19T09:55:33;101017.78;;;11.93;100.00
29417;BME280;28421;51.030;4.006;2023-11-19T09:57:59;101011.38;;;11.94;100.00
29417;BME280;28421;51.030;4.006;2023-11-19T10:00:27;101010.41;;;12.18;100.00
29417;BME280;28421;51.030;4.006;2023-11-19T10:02:53;100999.69;;;12.33;100.00
29417;BME280;28421;51.030;4.006;2023-11-19T10:05:20;100991.47;;;12.49;100.00
29417;BME280;28421;51.030;4.006;2023-11-19T10:07:49;101026.03;;;12.68;100.00
29417;BME280;28421;51.030;4.006;2023-11-19T10:10:15;101021.94;;;12.73;100.00
29417;BME280;28421;51.030;4.006;2023-11-19T10:12:44;101026.09;;;12.60;100.00
29417;BME280;28421;51.030;4.006;2023-11-19T10:15:17;101033.28;;;12.68;100.00
29417;BME280;28421;51.030;4.006;2023-11-19T10:17:45;100999.97;;;12.38;100.00
29417;BME280;28421;51.030;4.006;2023-11-19T10:20:10;101021.63;;;12.53;100.00
29417;BME280;28421;51.030;4.006;2023-11-19T10:22:39;101014.59;;;12.43;100.00
29417;BME280;28421;51.030;4.006;2023-11-19T10:25:24;101048.16;;;12.64;100.00
29417;BME280;28421;51.030;4.006;2023-11-19T10:27:54;101033.84;;;12.40;100.00
29417;BME280;28421;51.030;4.006;2023-11-19T10:30:24;101031.25;;;12.47;100.00
29417;BME280;28421;51.030;4.006;2023-11-19T10:33:08;101013.72;;;12.28;100.00
29417;BME280;28421;51.030;4.006;2023-11-19T10:35:35;101002.44;;;12.25;100.00
29417;BME280;28421;51.030;4.006;2023-11-19T10:38:13;101036.03;;;12.60;100.00
29417;BME280;28421;51.030;4.006;2023-11-19T10:40:39;101005.31;;;12.46;100.00
29417;BME280;28421;51.030;4.006;2023-11-19T10:43:05;101015.50;;;12.36;100.00
29417;BME280;28421;51.030;4.006;2023-11-19T10:45:33;101010.72;;;12.46;100.00
29417;BME280;28421;51.030;4.006;2023-11-19T10:47:59;101017.22;;;12.52;100.00
29417;BME280;28421;51.030;4.006;2023-11-19T10:50:25;100996.19;;;12.47;100.00
29417;BME280;28421;51.030;4.006;2023-11-19T10:52:55;101013.69;;;12.51;100.00
29417;BME280;28421;51.030;4.006;2023-11-19T10:55:27;100986.00;;;12.34;100.00
29417;BME280;28421;51.030;4.006;2023-11-19T10:57:56;101008.38;;;12.43;100.00
29417;BME280;28421;51.030;4.006;2023-11-19T11:00:24;101025.44;;;12.58;100.00
29417;BME280;28421;51.030;4.006;2023-11-19T11:02:54;100980.50;;;12.51;100.00
29417;BME280;28421;51.030;4.006;2023-11-19T11:05:21;100984.72;;;12.68;100.00
29417;BME280;28421;51.030;4.006;2023-11-19T11:07:48;100957.47;;;12.63;100.00
29417;BME280;28421;51.030;4.006;2023-11-19T11:10:16;100968.66;;;12.75;100.00
29417;BME280;28421;51.030;4.006;2023-11-19T11:12:43;100996.72;;;13.03;100.00
29417;BME280;28421;51.030;4.006;2023-11-19T11:15:11;100989.25;;;13.05;100.00
29417;BME280;28421;51.030;4.006;2023-11-19T11:17:41;100960.88;;;12.94;100.00
29417;BME280;28421;51.030;4.006;2023-11-19T11:20:08;100944.13;;;12.99;100.00
29417;BME280;28421;51.030;4.006;2023-11-19T11:22:49;100960.13;;;13.15;100.00
29417;BME280;28421;51.030;4.006;2023-11-19T11:25:25;100972.66;;;13.31;100.00
29417;BME280;28421;51.030;4.006;2023-11-19T11:28:06;100971.78;;;13.31;99.60
29417;BME280;28421;51.030;4.006;2023-11-19T11:30:39;100978.69;;;13.33;99.51
29417;BME280;28421;51.030;4.006;2023-11-19T11:36:07;100973.53;;;13.38;97.87
29417;BME280;28421;51.030;4.006;2023-11-19T11:38:38;100982.06;;;13.35;96.80
29417;BME280;28421;51.030;4.006;2023-11-19T11:41:27;100943.34;;;13.05;97.08
29417;BME280;28421;51.030;4.006;2023-11-19T11:43:53;100942.88;;;13.02;100.00
29417;BME280;28421;51.030;4.006;2023-11-19T11:48:58;100973.06;;;13.05;100.00
29417;BME280;28421;51.030;4.006;2023-11-19T11:54:26;100944.09;;;12.69;100.00
29417;BME280;28421;51.030;4.006;2023-11-19T11:57:10;100935.31;;;12.67;100.00
29417;BME280;28421;51.030;4.006;2023-11-19T12:02:09;100935.25;;;12.61;100.00
29417;BME280;28421;51.030;4.006;2023-11-19T12:04:36;100947.28;;;12.50;100.00
29417;BME280;28421;51.030;4.006;2023-11-19T12:07:16;100971.50;;;12.58;100.00
29417;BME280;28421;51.030;4.006;2023-11-19T12:09:47;100945.97;;;12.46;100.00
29417;BME280;28421;51.030;4.006;2023-11-19T12:12:18;100967.78;;;12.59;100.00
29417;BME280;28421;51.030;4.006;2023-11-19T12:17:47;100982.97;;;12.37;100.00
29417;BME280;28421;51.030;4.006;2023-11-19T12:20:17;100980.06;;;12.39;100.00
29417;BME280;28421;51.030;4.006;2023-11-19T12:22:44;100972.81;;;12.39;100.00
29417;BME280;28421;51.030;4.006;2023-11-19T12:25:11;100965.66;;;12.32;100.00
29417;BME280;28421;51.030;4.006;2023-11-19T12:27:44;100963.13;;;12.53;100.00
29417;BME280;28421;51.030;4.006;2023-11-19T12:30:11;100986.16;;;12.93;100.00
29417;BME280;28421;51.030;4.006;2023-11-19T12:32:44;100977.81;;;13.18;100.00
29417;BME280;28421;51.030;4.006;2023-11-19T12:35:10;100958.00;;;13.26;100.00
29417;BME280;28421;51.030;4.006;2023-11-19T12:37:42;100944.25;;;13.35;100.00
29417;BME280;28421;51.030;4.006;2023-11-19T12:40:16;100936.41;;;13.11;100.00
29417;BME280;28421;51.030;4.006;2023-11-19T12:42:43;100943.09;;;13.15;100.00
29417;BME280;28421;51.030;4.006;2023-11-19T12:45:09;100963.09;;;13.06;100.00
29417;BME280;28421;51.030;4.006;2023-11-19T12:47:43;100966.09;;;13.11;100.00
29417;BME280;28421;51.030;4.006;2023-11-19T12:50:09;100943.41;;;12.67;100.00
29417;BME280;28421;51.030;4.006;2023-11-19T12:52:38;100959.34;;;12.77;100.00
29417;BME280;28421;51.030;4.006;2023-11-19T12:55:05;100935.41;;;12.59;100.00
29417;BME280;28421;51.030;4.006;2023-11-19T12:57:49;100930.63;;;12.32;100.00